createdAt,value
2023-07-11T00:00:23.327Z,6.15
2023-07-11T00:01:19.968Z,5.88
2023-07-11T00:02:16.937Z,5.85
2023-07-11T00:03:13.741Z,6.30
2023-07-11T00:04:10.621Z,6.18
2023-07-11T00:05:08.801Z,5.63
2023-07-11T00:06:08.747Z,6.38
2023-07-11T00:07:05.767Z,6.15
2023-07-11T00:08:02.398Z,5.35
2023-07-11T00:08:59.150Z,6.13
2023-07-11T00:09:55.812Z,6.00
2023-07-11T00:10:52.496Z,5.55
2023-07-11T00:11:49.102Z,5.80
2023-07-11T00:12:45.818Z,6.15
2023-07-11T00:13:42.521Z,5.72
2023-07-11T00:14:39.167Z,6.00
2023-07-11T00:15:35.827Z,5.90
2023-07-11T00:16:32.525Z,6.10
2023-07-11T00:17:29.641Z,6.45
2023-07-11T00:18:26.316Z,6.50
2023-07-11T00:19:23.106Z,6.43
2023-07-11T00:20:20.414Z,6.40
2023-07-11T00:21:17.049Z,6.50
2023-07-11T00:22:13.933Z,6.22
2023-07-11T00:23:10.706Z,5.93
2023-07-11T00:24:08.011Z,6.35
2023-07-11T00:25:06.020Z,6.32
2023-07-11T00:26:02.853Z,6.43
2023-07-11T00:26:59.472Z,6.22
2023-07-11T00:27:56.154Z,6.22
2023-07-11T00:28:52.742Z,6.50
2023-07-11T00:29:49.451Z,6.03
2023-07-11T00:30:46.220Z,6.47
2023-07-11T00:31:42.909Z,6.35
2023-07-11T00:32:39.797Z,6.50
2023-07-11T00:33:36.521Z,5.88
2023-07-11T00:34:33.315Z,6.13
2023-07-11T00:35:29.932Z,6.07
2023-07-11T00:36:26.517Z,6.60
2023-07-11T00:37:23.273Z,6.20
2023-07-11T00:38:21.191Z,6.53
2023-07-11T00:39:17.813Z,7.03
2023-07-11T00:40:14.474Z,6.55
2023-07-11T00:41:11.104Z,7.18
2023-07-11T00:42:09.357Z,6.70
2023-07-11T00:43:06.479Z,6.35
2023-07-11T00:44:03.158Z,6.75
2023-07-11T00:45:05.364Z,7.25
2023-07-11T00:46:07.993Z,6.70
2023-07-11T00:47:05.434Z,7.20
2023-07-11T00:48:02.556Z,6.90
2023-07-11T00:49:01.556Z,7.00
2023-07-11T00:50:03.719Z,7.00
2023-07-11T00:51:01.306Z,6.85
2023-07-11T00:52:02.311Z,6.70
2023-07-11T00:52:58.988Z,7.65
2023-07-11T00:53:56.129Z,6.35
2023-07-11T00:54:58.127Z,5.78
2023-07-11T00:55:58.826Z,6.60
2023-07-11T00:56:57.717Z,6.13
2023-07-11T00:57:54.499Z,6.57
2023-07-11T00:58:52.358Z,6.63
2023-07-11T00:59:49.613Z,6.82
2023-07-11T01:00:46.933Z,6.30
2023-07-11T01:01:48.266Z,5.55
2023-07-11T01:02:44.966Z,6.28
2023-07-11T01:03:41.923Z,7.20
2023-07-11T01:04:40.070Z,6.93
2023-07-11T01:05:38.309Z,7.13
2023-07-11T01:06:35.530Z,6.90
2023-07-11T01:07:35.580Z,5.82
2023-07-11T01:08:32.310Z,6.60
2023-07-11T01:09:29.539Z,6.60
2023-07-11T01:10:26.287Z,6.85
2023-07-11T01:11:26.327Z,6.53
2023-07-11T01:12:23.144Z,7.55
2023-07-11T01:13:19.779Z,7.15
2023-07-11T01:14:16.605Z,7.10
2023-07-11T01:15:13.468Z,6.72
2023-07-11T01:16:10.704Z,7.28
2023-07-11T01:17:24.813Z,6.68
2023-07-11T01:18:21.494Z,6.72
2023-07-11T01:19:18.324Z,6.70
2023-07-11T01:20:14.995Z,6.93
2023-07-11T01:21:17.559Z,7.22
2023-07-11T01:23:11.250Z,6.65
2023-07-11T01:24:08.404Z,7.75
2023-07-11T01:25:11.380Z,7.65
2023-07-11T01:26:09.447Z,7.47
2023-07-11T01:27:06.346Z,7.35
2023-07-11T01:28:03.098Z,6.88
2023-07-11T01:29:00.022Z,7.50
2023-07-11T01:29:56.688Z,7.28
2023-07-11T01:30:53.356Z,7.00
2023-07-11T01:31:50.048Z,7.20
2023-07-11T01:32:47.242Z,6.88
2023-07-11T01:33:44.042Z,7.10
2023-07-11T01:34:40.776Z,7.28
2023-07-11T01:35:37.447Z,7.47
2023-07-11T01:36:35.117Z,7.75
2023-07-11T01:37:32.190Z,6.80
2023-07-11T01:38:28.894Z,6.88
2023-07-11T01:39:25.589Z,6.93
2023-07-11T01:40:22.593Z,7.40
2023-07-11T01:41:19.469Z,7.75
2023-07-11T01:42:16.903Z,6.50
2023-07-11T01:43:13.759Z,7.50
2023-07-11T01:44:12.242Z,7.05
2023-07-11T01:45:11.056Z,6.72
2023-07-11T01:46:07.907Z,6.80
2023-07-11T01:47:05.580Z,7.68
2023-07-11T01:48:02.309Z,7.53
2023-07-11T01:48:58.985Z,8.55
2023-07-11T01:49:55.617Z,7.25
2023-07-11T01:50:52.810Z,8.10
2023-07-11T01:51:49.452Z,7.30
2023-07-11T01:52:46.101Z,6.93
2023-07-11T01:53:42.771Z,7.28
2023-07-11T01:54:39.397Z,7.00
2023-07-11T01:55:36.033Z,7.07
2023-07-11T01:56:32.634Z,7.15
2023-07-11T01:57:29.297Z,7.68
2023-07-11T01:58:25.968Z,7.05
2023-07-11T01:59:22.647Z,7.18
2023-07-11T02:00:19.403Z,7.03
2023-07-11T02:01:16.256Z,7.13
2023-07-11T02:02:13.435Z,7.55
2023-07-11T02:03:10.847Z,7.65
2023-07-11T02:04:08.161Z,7.57
2023-07-11T02:05:05.124Z,6.82
2023-07-11T02:06:01.795Z,6.60
2023-07-11T02:06:58.389Z,7.15
2023-07-11T02:07:55.059Z,7.70
2023-07-11T02:08:52.586Z,7.72
2023-07-11T02:09:49.398Z,7.50
2023-07-11T02:10:46.379Z,8.05
2023-07-11T02:11:43.484Z,7.10
2023-07-11T02:12:40.153Z,7.97
2023-07-11T02:13:36.841Z,8.02
2023-07-11T02:14:33.615Z,7.15
2023-07-11T02:15:30.311Z,6.88
2023-07-11T02:16:27.105Z,6.88
2023-07-11T02:17:23.958Z,7.50
2023-07-11T02:18:20.865Z,7.78
2023-07-11T02:19:20.013Z,7.15
2023-07-11T02:20:16.978Z,7.60
2023-07-11T02:21:13.714Z,8.27
2023-07-11T02:22:10.406Z,7.63
2023-07-11T02:23:07.037Z,7.15
2023-07-11T02:24:04.303Z,7.28
2023-07-11T02:25:00.946Z,7.47
2023-07-11T02:25:57.590Z,7.15
2023-07-11T02:26:54.222Z,7.22
2023-07-11T02:27:50.874Z,7.15
2023-07-11T02:28:47.518Z,7.55
2023-07-11T02:29:44.342Z,7.68
2023-07-11T02:30:41.960Z,7.28
2023-07-11T02:31:38.992Z,6.82
2023-07-11T02:32:36.322Z,7.50
2023-07-11T02:33:32.978Z,7.30
2023-07-11T02:34:29.592Z,7.22
2023-07-11T02:35:26.259Z,7.28
2023-07-11T02:36:22.887Z,7.60
2023-07-11T02:37:19.478Z,7.57
2023-07-11T02:38:16.141Z,7.07
2023-07-11T02:39:13.349Z,7.63
2023-07-11T02:40:10.535Z,8.05
2023-07-11T02:41:07.247Z,8.15
2023-07-11T02:42:04.483Z,7.80
2023-07-11T02:43:01.155Z,8.05
2023-07-11T02:43:58.719Z,7.57
2023-07-11T02:44:55.385Z,7.57
2023-07-11T02:45:52.591Z,7.13
2023-07-11T02:46:49.428Z,7.15
2023-07-11T02:47:46.062Z,6.93
2023-07-11T02:48:43.995Z,7.47
2023-07-11T02:49:42.307Z,7.65
2023-07-11T02:50:39.054Z,7.93
2023-07-11T02:51:40.641Z,8.30
2023-07-11T02:52:38.148Z,6.97
2023-07-11T02:53:34.801Z,7.35
2023-07-11T02:54:31.448Z,8.77
2023-07-11T02:55:28.053Z,7.85
2023-07-11T02:56:24.826Z,8.32
2023-07-11T02:57:21.560Z,7.85
2023-07-11T02:58:18.310Z,7.55
2023-07-11T02:59:14.955Z,7.78
2023-07-11T03:00:12.539Z,7.90
2023-07-11T03:01:09.527Z,7.60
2023-07-11T03:02:06.559Z,6.60
2023-07-11T03:03:04.041Z,6.63
2023-07-11T03:04:01.026Z,6.80
2023-07-11T03:04:57.753Z,7.53
2023-07-11T03:05:55.767Z,6.55
2023-07-11T03:06:57.559Z,7.28
2023-07-11T03:07:54.248Z,7.05
2023-07-11T03:08:50.910Z,7.53
2023-07-11T03:09:47.584Z,7.35
2023-07-11T03:10:44.658Z,7.72
2023-07-11T03:11:42.703Z,6.70
2023-07-11T03:12:39.642Z,7.35
2023-07-11T03:13:36.324Z,7.32
2023-07-11T03:14:33.017Z,8.45
2023-07-11T03:15:29.733Z,7.85
2023-07-11T03:16:26.476Z,7.93
2023-07-11T03:17:23.418Z,8.13
2023-07-11T03:18:20.261Z,7.28
2023-07-11T03:19:16.934Z,7.82
2023-07-11T03:20:13.565Z,7.90
2023-07-11T03:21:10.179Z,7.57
2023-07-11T03:22:06.986Z,8.27
2023-07-11T03:23:03.772Z,8.10
2023-07-11T03:24:00.375Z,7.60
2023-07-11T03:24:57.030Z,8.32
2023-07-11T03:25:54.241Z,8.18
2023-07-11T03:26:50.975Z,7.05
2023-07-11T03:27:47.664Z,8.10
2023-07-11T03:28:44.425Z,7.55
2023-07-11T03:29:41.248Z,7.70
2023-07-11T03:30:37.943Z,7.75
2023-07-11T03:31:34.704Z,7.80
2023-07-11T03:32:32.294Z,8.23
2023-07-11T03:33:28.951Z,7.57
2023-07-11T03:34:25.617Z,7.72
2023-07-11T03:35:22.290Z,7.53
2023-07-11T03:36:20.076Z,8.23
2023-07-11T03:37:16.766Z,7.38
2023-07-11T03:38:13.390Z,7.85
2023-07-11T03:39:10.070Z,7.90
2023-07-11T03:40:07.373Z,8.13
2023-07-11T03:41:04.907Z,8.45
2023-07-11T03:42:01.578Z,8.02
2023-07-11T03:42:58.360Z,8.02
2023-07-11T03:43:55.033Z,8.18
2023-07-11T03:44:51.647Z,7.88
2023-07-11T03:45:50.221Z,8.00
2023-07-11T03:46:47.494Z,8.10
2023-07-11T03:47:44.273Z,8.00
2023-07-11T03:48:40.929Z,8.60
2023-07-11T03:49:37.782Z,9.32
2023-07-11T03:50:34.442Z,9.23
2023-07-11T03:51:31.165Z,8.88
2023-07-11T03:52:27.805Z,8.55
2023-07-11T03:53:25.578Z,8.88
2023-07-11T03:54:24.729Z,8.43
2023-07-11T03:55:21.451Z,8.55
2023-07-11T03:56:18.174Z,8.15
2023-07-11T03:57:14.770Z,8.65
2023-07-11T03:58:11.983Z,8.52
2023-07-11T03:59:08.686Z,8.68
2023-07-11T04:00:06.002Z,9.18
2023-07-11T04:01:02.654Z,8.93
2023-07-11T04:01:59.321Z,9.63
2023-07-11T04:02:56.074Z,9.10
2023-07-11T04:03:53.592Z,9.80
2023-07-11T04:04:50.360Z,9.45
2023-07-11T04:05:47.315Z,9.43
2023-07-11T04:06:44.012Z,8.25
2023-07-11T04:07:40.682Z,7.97
2023-07-11T04:08:37.604Z,8.93
2023-07-11T04:09:34.446Z,7.85
2023-07-11T04:10:32.433Z,8.10
2023-07-11T04:11:29.106Z,8.77
2023-07-11T04:12:25.780Z,9.13
2023-07-11T04:13:22.631Z,8.18
2023-07-11T04:14:19.400Z,8.32
2023-07-11T04:15:16.229Z,8.57
2023-07-11T04:16:12.922Z,8.75
2023-07-11T04:17:09.660Z,8.40
2023-07-11T04:18:06.554Z,8.27
2023-07-11T04:19:03.816Z,7.47
2023-07-11T04:20:00.647Z,8.38
2023-07-11T04:20:57.382Z,7.90
2023-07-11T04:21:54.087Z,7.97
2023-07-11T04:22:50.769Z,8.88
2023-07-11T04:23:48.742Z,8.60
2023-07-11T04:24:45.391Z,7.50
2023-07-11T04:25:42.069Z,7.88
2023-07-11T04:26:38.930Z,8.00
2023-07-11T04:27:36.718Z,7.88
2023-07-11T04:28:33.346Z,8.43
2023-07-11T04:29:30.019Z,8.25
2023-07-11T04:30:26.663Z,7.78
2023-07-11T04:31:25.435Z,7.93
2023-07-11T04:32:22.617Z,8.63
2023-07-11T04:33:19.457Z,7.90
2023-07-11T04:34:16.270Z,9.07
2023-07-11T04:35:15.843Z,8.35
2023-07-11T04:36:15.353Z,7.93
2023-07-11T04:37:12.049Z,7.38
2023-07-11T04:38:08.723Z,7.70
2023-07-11T04:39:05.393Z,7.32
2023-07-11T04:40:02.058Z,7.00
2023-07-11T04:41:03.627Z,7.40
2023-07-11T04:42:00.284Z,6.95
2023-07-11T04:42:59.647Z,7.15
2023-07-11T04:43:56.319Z,8.00
2023-07-11T04:44:52.953Z,8.00
2023-07-11T04:45:49.568Z,7.32
2023-07-11T04:46:46.325Z,8.30
2023-07-11T04:47:44.424Z,7.38
2023-07-11T04:48:43.234Z,7.68
2023-07-11T04:49:39.970Z,7.93
2023-07-11T04:50:36.640Z,7.85
2023-07-11T04:51:33.327Z,8.07
2023-07-11T04:52:30.034Z,7.80
2023-07-11T04:53:27.857Z,7.20
2023-07-11T04:54:26.870Z,7.95
2023-07-11T04:55:24.040Z,7.88
2023-07-11T04:56:20.783Z,7.80
2023-07-11T04:57:17.493Z,8.27
2023-07-11T04:58:14.139Z,7.93
2023-07-11T04:59:10.792Z,8.00
2023-07-11T05:00:08.082Z,8.00
2023-07-11T05:01:11.429Z,7.60
2023-07-11T05:02:08.265Z,7.55
2023-07-11T05:03:05.021Z,7.93
2023-07-11T05:04:01.868Z,7.70
2023-07-11T05:04:58.528Z,7.80
2023-07-11T05:05:55.764Z,8.07
2023-07-11T05:06:52.490Z,7.95
2023-07-11T05:07:49.236Z,7.97
2023-07-11T05:08:45.881Z,8.02
2023-07-11T05:09:57.110Z,8.25
2023-07-11T05:11:02.635Z,8.25
2023-07-11T05:12:01.505Z,8.07
2023-07-11T05:12:58.115Z,7.40
2023-07-11T05:13:54.828Z,7.90
2023-07-11T05:14:51.502Z,7.30
2023-07-11T05:15:48.223Z,7.35
2023-07-11T05:16:44.990Z,6.90
2023-07-11T05:17:41.657Z,7.50
2023-07-11T05:18:44.764Z,7.65
2023-07-11T05:19:42.192Z,7.68
2023-07-11T05:20:39.693Z,7.05
2023-07-11T05:21:36.321Z,7.28
2023-07-11T05:22:32.965Z,7.50
2023-07-11T05:23:31.449Z,6.55
2023-07-11T05:24:28.233Z,7.50
2023-07-11T05:25:24.893Z,7.82
2023-07-11T05:26:21.537Z,7.72
2023-07-11T05:27:18.202Z,7.60
2023-07-11T05:28:15.745Z,7.57
2023-07-11T05:29:12.396Z,7.00
2023-07-11T05:30:09.973Z,7.10
2023-07-11T05:31:08.060Z,7.68
2023-07-11T05:32:05.245Z,7.32
2023-07-11T05:33:02.076Z,7.18
2023-07-11T05:33:58.889Z,7.03
2023-07-11T05:34:55.978Z,7.10
2023-07-11T05:36:26.621Z,7.57
2023-07-11T05:37:23.364Z,7.35
2023-07-11T05:38:19.943Z,6.90
2023-07-11T05:39:17.162Z,7.05
2023-07-11T05:40:15.013Z,7.28
2023-07-11T05:41:11.624Z,7.20
2023-07-11T05:42:08.315Z,6.75
2023-07-11T05:43:04.989Z,7.35
2023-07-11T05:44:02.486Z,7.47
2023-07-11T05:44:59.168Z,7.25
2023-07-11T05:45:55.854Z,7.60
2023-07-11T05:46:52.697Z,7.00
2023-07-11T05:47:49.346Z,7.72
2023-07-11T05:48:45.966Z,7.65
2023-07-11T05:49:44.842Z,7.72
2023-07-11T05:50:41.432Z,7.65
2023-07-11T05:51:38.200Z,7.50
2023-07-11T05:52:34.895Z,7.93
2023-07-11T05:53:31.634Z,7.75
2023-07-11T05:54:28.192Z,8.18
2023-07-11T05:55:24.885Z,8.45
2023-07-11T05:56:22.037Z,8.23
2023-07-11T05:57:18.664Z,7.82
2023-07-11T05:58:15.267Z,8.05
2023-07-11T05:59:11.900Z,8.13
2023-07-11T06:00:10.836Z,8.75
2023-07-11T06:01:07.654Z,8.57
2023-07-11T06:02:04.733Z,8.55
2023-07-11T06:03:02.737Z,8.18
2023-07-11T06:04:14.111Z,8.52
2023-07-11T06:05:10.933Z,7.80
2023-07-11T06:06:10.117Z,8.52
2023-07-11T06:07:06.970Z,8.32
2023-07-11T06:08:03.761Z,7.97
2023-07-11T06:09:00.356Z,9.10
2023-07-11T06:09:57.533Z,8.27
2023-07-11T06:10:58.574Z,8.25
2023-07-11T06:11:55.440Z,8.00
2023-07-11T06:12:52.214Z,7.45
2023-07-11T06:13:48.921Z,7.43
2023-07-11T06:14:45.588Z,7.05
2023-07-11T06:15:42.650Z,7.38
2023-07-11T06:16:40.996Z,7.82
2023-07-11T06:17:37.746Z,7.40
2023-07-11T06:18:37.155Z,7.60
2023-07-11T06:19:33.808Z,7.82
2023-07-11T06:20:30.502Z,7.70
2023-07-11T06:21:27.216Z,7.90
2023-07-11T06:22:24.224Z,7.75
2023-07-11T06:23:21.139Z,7.70
2023-07-11T06:24:17.849Z,7.85
2023-07-11T06:25:14.545Z,7.72
2023-07-11T06:26:11.513Z,7.88
2023-07-11T06:27:08.149Z,8.13
2023-07-11T06:28:05.016Z,7.68
2023-07-11T06:29:01.622Z,7.55
2023-07-11T06:29:58.338Z,7.30
2023-07-11T06:31:02.064Z,8.25
2023-07-11T06:31:59.108Z,7.40
2023-07-11T06:32:55.799Z,7.90
2023-07-11T06:33:52.623Z,7.78
2023-07-11T06:34:49.223Z,7.93
2023-07-11T06:35:52.233Z,7.50
2023-07-11T06:36:48.976Z,8.20
2023-07-11T06:37:45.543Z,7.90
2023-07-11T06:38:42.239Z,7.55
2023-07-11T06:39:39.313Z,7.78
2023-07-11T06:40:38.829Z,7.55
2023-07-11T06:41:36.530Z,7.55
2023-07-11T06:42:33.292Z,7.70
2023-07-11T06:43:31.073Z,7.88
2023-07-11T06:44:27.834Z,7.38
2023-07-11T06:45:26.178Z,7.18
2023-07-11T06:46:25.346Z,6.95
2023-07-11T06:47:22.019Z,7.10
2023-07-11T06:48:19.849Z,6.45
2023-07-11T06:49:16.562Z,6.93
2023-07-11T06:50:13.364Z,6.70
2023-07-11T06:51:11.241Z,7.00
2023-07-11T06:52:08.299Z,6.47
2023-07-11T06:53:04.967Z,6.47
2023-07-11T06:54:01.685Z,6.57
2023-07-11T06:54:58.393Z,6.82
2023-07-11T06:55:55.362Z,6.43
2023-07-11T06:56:53.485Z,6.53
2023-07-11T06:57:50.205Z,6.72
2023-07-11T06:58:46.938Z,6.35
2023-07-11T06:59:43.572Z,6.00
2023-07-11T07:00:40.206Z,6.30
2023-07-11T07:01:38.819Z,6.35
2023-07-11T07:02:35.966Z,6.30
2023-07-11T07:03:34.001Z,6.07
2023-07-11T07:04:30.902Z,6.10
2023-07-11T07:05:27.648Z,6.28
2023-07-11T07:06:24.407Z,6.15
2023-07-11T07:07:20.995Z,6.45
2023-07-11T07:08:19.378Z,6.13
2023-07-11T07:09:16.064Z,6.38
2023-07-11T07:10:12.856Z,6.18
2023-07-11T07:11:10.822Z,6.30
2023-07-11T07:12:07.698Z,6.43
2023-07-11T07:13:04.360Z,6.95
2023-07-11T07:14:06.045Z,6.07
2023-07-11T07:16:01.554Z,6.47
2023-07-11T07:16:58.171Z,6.65
2023-07-11T07:17:54.847Z,6.53
2023-07-11T07:18:51.664Z,6.80
2023-07-11T07:19:48.310Z,6.53
2023-07-11T07:21:48.647Z,6.57
2023-07-11T07:22:45.240Z,7.50
2023-07-11T07:23:42.170Z,7.10
2023-07-11T07:24:38.885Z,6.85
2023-07-11T07:25:35.586Z,7.00
2023-07-11T07:26:32.274Z,6.65
2023-07-11T07:27:29.544Z,6.82
2023-07-11T07:28:28.329Z,7.22
2023-07-11T07:29:26.378Z,7.28
2023-07-11T07:30:23.027Z,6.50
2023-07-11T07:31:20.031Z,6.25
2023-07-11T07:32:16.941Z,7.43
2023-07-11T07:33:13.790Z,6.88
2023-07-11T07:34:10.484Z,7.63
2023-07-11T07:35:07.364Z,6.78
2023-07-11T07:36:06.821Z,6.80
2023-07-11T07:37:03.574Z,7.10
2023-07-11T07:38:00.313Z,6.65
2023-07-11T07:38:56.997Z,6.18
2023-07-11T07:39:54.085Z,6.70
2023-07-11T07:40:54.135Z,6.45
2023-07-11T07:41:50.821Z,6.97
2023-07-11T07:42:47.735Z,6.88
2023-07-11T07:43:44.582Z,6.93
2023-07-11T07:44:41.334Z,6.88
2023-07-11T07:45:38.036Z,7.40
2023-07-11T07:46:34.730Z,6.60
2023-07-11T07:47:31.510Z,7.13
2023-07-11T07:48:28.911Z,6.90
2023-07-11T07:49:25.539Z,6.05
2023-07-11T07:50:22.604Z,6.95
2023-07-11T07:51:20.537Z,6.55
2023-07-11T07:52:17.223Z,6.32
2023-07-11T07:53:15.175Z,6.68
2023-07-11T07:54:11.817Z,6.55
2023-07-11T07:55:09.084Z,6.78
2023-07-11T07:56:11.462Z,6.97
2023-07-11T07:58:04.603Z,7.13
2023-07-11T07:59:01.346Z,6.85
2023-07-11T07:59:57.972Z,6.70
2023-07-11T08:00:54.611Z,6.78
2023-07-11T08:01:51.267Z,7.07
2023-07-11T08:02:48.084Z,6.95
2023-07-11T08:03:45.469Z,7.38
2023-07-11T08:04:42.575Z,7.40
2023-07-11T08:05:39.420Z,7.00
2023-07-11T08:06:36.651Z,6.93
2023-07-11T08:07:33.301Z,7.07
2023-07-11T08:08:30.168Z,6.90
2023-07-11T08:09:26.928Z,7.68
2023-07-11T08:10:23.617Z,7.00
2023-07-11T08:11:22.847Z,7.22
2023-07-11T08:12:19.539Z,7.85
2023-07-11T08:13:16.308Z,7.07
2023-07-11T08:14:13.140Z,6.95
2023-07-11T08:15:12.684Z,7.82
2023-07-11T08:16:19.286Z,7.50
2023-07-11T08:17:26.034Z,7.00
2023-07-11T08:18:23.289Z,7.70
2023-07-11T08:19:19.873Z,7.30
2023-07-11T08:20:16.694Z,7.03
2023-07-11T08:21:13.389Z,7.32
2023-07-11T08:22:10.165Z,6.45
2023-07-11T08:23:06.927Z,7.00
2023-07-11T08:24:06.268Z,7.13
2023-07-11T08:25:03.590Z,7.03
2023-07-11T08:26:00.230Z,7.22
2023-07-11T08:26:56.999Z,7.18
2023-07-11T08:27:53.704Z,6.60
2023-07-11T08:28:51.942Z,6.57
2023-07-11T08:29:48.684Z,7.07
2023-07-11T08:30:45.544Z,6.75
2023-07-11T08:31:42.385Z,7.05
2023-07-11T08:32:42.203Z,6.47
2023-07-11T08:33:40.392Z,6.93
2023-07-11T08:34:37.447Z,6.38
2023-07-11T08:35:34.277Z,6.82
2023-07-11T08:36:31.483Z,6.88
2023-07-11T08:37:28.235Z,6.50
2023-07-11T08:38:24.909Z,6.78
2023-07-11T08:39:22.574Z,6.82
2023-07-11T08:40:31.352Z,6.43
2023-07-11T08:41:53.333Z,6.70
2023-07-11T08:42:50.131Z,6.18
2023-07-11T08:43:49.690Z,6.22
2023-07-11T08:45:15.665Z,5.97
2023-07-11T08:46:15.613Z,5.85
2023-07-11T08:47:25.093Z,5.82
2023-07-11T08:48:28.356Z,5.47
2023-07-11T08:49:37.749Z,6.25
2023-07-11T08:50:41.112Z,6.45
2023-07-11T08:51:45.005Z,6.32
2023-07-11T08:52:44.540Z,5.95
2023-07-11T08:53:46.846Z,6.70
2023-07-11T08:55:01.657Z,6.32
2023-07-11T08:56:08.298Z,5.90
2023-07-11T08:57:05.337Z,6.50
2023-07-11T08:58:30.428Z,6.03
2023-07-11T08:59:41.886Z,6.43
2023-07-11T09:00:39.670Z,6.18
2023-07-11T09:01:51.135Z,6.80
2023-07-11T09:03:02.281Z,6.55
2023-07-11T09:04:00.920Z,6.10
2023-07-11T09:04:58.549Z,6.25
2023-07-11T09:06:08.363Z,5.93
2023-07-11T09:07:22.104Z,6.15
2023-07-11T09:08:21.125Z,5.90
2023-07-11T09:09:17.988Z,6.38
2023-07-11T09:10:46.363Z,6.03
2023-07-11T09:11:57.808Z,6.28
2023-07-11T09:13:15.679Z,6.00
2023-07-11T09:14:37.175Z,6.03
2023-07-11T09:15:55.431Z,5.65
2023-07-11T09:17:02.168Z,5.90
2023-07-11T09:18:44.339Z,6.03
2023-07-11T09:20:18.269Z,5.78
2023-07-11T09:21:23.801Z,5.68
2023-07-11T09:22:35.794Z,6.35
2023-07-11T09:23:44.787Z,5.57
2023-07-11T09:25:08.366Z,6.10
2023-07-11T09:27:24.218Z,5.40
2023-07-11T09:28:28.001Z,6.07
2023-07-11T09:29:24.667Z,5.90
2023-07-11T09:30:26.375Z,5.80
2023-07-11T09:31:23.800Z,5.70
2023-07-11T09:32:21.052Z,5.60
2023-07-11T09:33:21.894Z,5.65
2023-07-11T09:34:27.357Z,5.50
2023-07-11T09:35:31.196Z,5.63
2023-07-11T09:36:33.518Z,5.72
2023-07-11T09:37:35.014Z,5.53
2023-07-11T09:38:44.779Z,5.77
2023-07-11T09:39:50.533Z,5.70
2023-07-11T09:40:58.243Z,5.63
2023-07-11T09:42:17.722Z,4.97
2023-07-11T09:43:14.732Z,5.00
2023-07-11T09:44:12.241Z,5.00
2023-07-11T09:45:14.992Z,4.97
2023-07-11T09:46:22.134Z,5.50
2023-07-11T09:47:19.522Z,5.20
2023-07-11T09:48:32.362Z,4.88
2023-07-11T09:49:32.289Z,5.32
2023-07-11T09:50:40.876Z,4.97
2023-07-11T09:51:54.288Z,4.93
2023-07-11T09:52:52.757Z,4.93
2023-07-11T09:53:49.422Z,4.90
2023-07-11T09:55:50.064Z,4.88
2023-07-11T09:56:51.645Z,4.90
2023-07-11T09:57:51.029Z,5.13
2023-07-11T09:58:51.296Z,4.57
2023-07-11T10:01:22.783Z,4.43
2023-07-11T10:02:19.550Z,4.70
2023-07-11T10:03:18.496Z,4.90
2023-07-11T10:04:23.569Z,4.35
2023-07-11T10:05:24.203Z,4.68
2023-07-11T10:07:35.615Z,4.43
2023-07-11T10:08:37.344Z,4.72
2023-07-11T10:09:38.415Z,4.57
2023-07-11T10:10:35.066Z,4.93
2023-07-11T10:11:31.795Z,4.80
2023-07-11T10:12:29.551Z,4.75
2023-07-11T10:13:37.922Z,4.80
2023-07-11T10:14:43.603Z,4.32
2023-07-11T10:15:40.216Z,4.75
2023-07-11T10:16:36.858Z,4.63
2023-07-11T10:17:36.172Z,4.80
2023-07-11T10:18:36.760Z,5.38
2023-07-11T10:19:34.289Z,4.82
2023-07-11T10:20:32.316Z,4.78
2023-07-11T10:21:40.365Z,4.75
2023-07-11T10:22:38.616Z,5.65
2023-07-11T10:23:36.796Z,4.63
2023-07-11T10:24:39.056Z,4.88
2023-07-11T10:26:39.558Z,4.32
2023-07-11T10:27:38.305Z,4.63
2023-07-11T10:28:39.829Z,4.50
2023-07-11T10:29:43.631Z,4.55
2023-07-11T10:30:41.713Z,4.55
2023-07-11T10:32:06.843Z,4.30
2023-07-11T10:33:33.576Z,5.20
2023-07-11T10:34:38.454Z,5.30
2023-07-11T10:35:38.303Z,4.18
2023-07-11T10:36:56.450Z,4.82
2023-07-11T10:37:58.183Z,4.22
2023-07-11T10:39:00.358Z,4.47
2023-07-11T10:40:05.505Z,4.65
2023-07-11T10:41:04.621Z,5.18
2023-07-11T10:42:13.038Z,4.70
2023-07-11T10:43:18.582Z,4.18
2023-07-11T10:44:20.333Z,4.68
2023-07-11T10:45:24.494Z,4.63
2023-07-11T10:46:50.329Z,4.65
2023-07-11T10:47:57.156Z,4.65
2023-07-11T10:48:58.089Z,4.35
2023-07-11T10:49:58.054Z,4.43
2023-07-11T10:51:27.515Z,4.63
2023-07-11T10:52:28.740Z,4.63
2023-07-11T10:53:25.348Z,4.97
2023-07-11T10:54:25.867Z,4.80
2023-07-11T10:55:31.113Z,4.90
2023-07-11T10:56:28.145Z,4.85
2023-07-11T10:57:46.545Z,5.03
2023-07-11T10:58:43.258Z,4.03
2023-07-11T10:59:39.942Z,4.68
2023-07-11T11:00:59.656Z,4.35
2023-07-11T11:02:22.566Z,4.55
2023-07-11T11:03:23.329Z,4.85
2023-07-11T11:04:59.458Z,4.30
2023-07-11T11:06:12.524Z,4.22
2023-07-11T11:07:27.449Z,4.75
2023-07-11T11:08:47.717Z,4.28
2023-07-11T11:09:55.028Z,4.60
2023-07-11T11:11:19.324Z,4.60
2023-07-11T11:12:35.558Z,4.93
2023-07-11T11:13:38.838Z,4.78
2023-07-11T11:14:57.089Z,4.43
2023-07-11T11:15:57.718Z,4.50
2023-07-11T11:17:27.531Z,4.97
2023-07-11T11:18:30.122Z,4.75
2023-07-11T11:19:30.388Z,4.78
2023-07-11T11:21:18.358Z,5.30
2023-07-11T11:22:26.574Z,4.50
2023-07-11T11:23:41.343Z,4.65
2023-07-11T11:24:58.443Z,4.55
2023-07-11T11:26:16.170Z,5.03
2023-07-11T11:27:15.958Z,5.28
2023-07-11T11:28:18.885Z,4.88
2023-07-11T11:29:40.830Z,4.50
2023-07-11T11:30:43.995Z,4.40
2023-07-11T11:32:01.997Z,4.95
2023-07-11T11:33:24.944Z,5.40
2023-07-11T11:34:37.311Z,5.07
2023-07-11T11:36:10.420Z,5.28
2023-07-11T11:37:28.693Z,5.07
2023-07-11T11:38:48.067Z,4.88
2023-07-11T11:39:48.149Z,4.68
2023-07-11T11:40:52.182Z,4.75
2023-07-11T11:41:59.399Z,4.95
2023-07-11T11:43:02.357Z,4.70
2023-07-11T11:51:31.795Z,4.75
2023-07-11T11:52:44.784Z,4.57
2023-07-11T11:53:45.588Z,4.57
2023-07-11T11:54:48.513Z,4.90
2023-07-11T11:56:20.347Z,4.38
2023-07-11T11:57:34.513Z,4.78
2023-07-11T11:58:33.775Z,4.45
2023-07-11T11:59:32.168Z,4.68
2023-07-11T12:00:51.536Z,4.78
2023-07-11T12:01:54.407Z,4.43
2023-07-11T12:02:51.436Z,4.15
2023-07-11T12:03:48.400Z,4.80
2023-07-11T12:05:19.314Z,4.80
2023-07-11T12:06:35.947Z,4.50
2023-07-11T12:07:42.142Z,4.78
2023-07-11T12:08:39.868Z,4.72
2023-07-11T12:09:54.720Z,4.60
2023-07-11T12:11:19.309Z,5.13
2023-07-11T12:12:19.935Z,4.75
2023-07-11T12:13:26.865Z,5.25
2023-07-11T12:14:29.356Z,4.57
2023-07-11T12:15:33.196Z,4.47
2023-07-11T12:16:41.506Z,4.30
2023-07-11T12:17:39.806Z,4.32
2023-07-11T12:18:47.284Z,5.05
2023-07-11T12:19:58.208Z,4.85
2023-07-11T12:21:18.485Z,4.90
2023-07-11T12:22:15.208Z,4.70
2023-07-11T12:23:26.141Z,4.80
2023-07-11T12:25:14.015Z,5.10
2023-07-11T12:26:18.168Z,4.82
2023-07-11T12:27:17.508Z,4.82
2023-07-11T12:28:24.766Z,4.88
2023-07-11T12:29:40.976Z,5.10
2023-07-11T12:30:41.945Z,5.03
2023-07-11T12:31:38.613Z,5.10
2023-07-11T12:32:35.342Z,5.45
2023-07-11T12:33:37.738Z,5.13
2023-07-11T12:35:37.012Z,4.68
2023-07-11T12:36:59.957Z,4.97
2023-07-11T12:38:02.561Z,5.00
2023-07-11T12:39:07.819Z,4.75
2023-07-11T12:40:19.995Z,4.93
2023-07-11T12:41:42.835Z,4.83
2023-07-11T12:42:55.474Z,5.25
2023-07-11T12:43:54.400Z,5.00
2023-07-11T12:44:51.097Z,4.65
2023-07-11T12:45:57.042Z,5.13
2023-07-11T12:46:53.985Z,5.13
2023-07-11T12:48:01.105Z,5.13
2023-07-11T12:48:57.930Z,4.80
2023-07-11T12:49:55.279Z,5.47
2023-07-11T12:50:56.968Z,5.28
2023-07-11T12:52:04.522Z,4.97
2023-07-11T12:53:03.551Z,5.35
2023-07-11T12:54:15.099Z,5.00
2023-07-11T12:55:12.711Z,4.85
2023-07-11T12:56:14.410Z,5.32
2023-07-11T12:57:20.323Z,5.90
2023-07-11T12:58:21.974Z,5.18
2023-07-11T12:59:26.305Z,5.65
2023-07-11T13:00:26.589Z,5.20
2023-07-11T13:01:23.977Z,5.43
2023-07-11T13:02:31.573Z,5.00
2023-07-11T13:03:40.184Z,5.07
2023-07-11T13:04:52.877Z,5.15
2023-07-11T13:05:58.337Z,5.07
2023-07-11T13:07:25.296Z,5.22
2023-07-11T13:08:22.867Z,4.47
2023-07-11T13:09:19.925Z,4.97
2023-07-11T13:10:25.642Z,4.88
2023-07-11T13:11:31.155Z,4.93
2023-07-11T13:12:34.203Z,4.72
2023-07-11T13:13:34.335Z,4.88
2023-07-11T13:14:33.712Z,5.13
2023-07-11T13:15:30.520Z,5.07
2023-07-11T13:16:35.654Z,5.43
2023-07-11T13:17:34.015Z,4.75
2023-07-11T13:18:38.603Z,4.68
2023-07-11T13:19:35.260Z,5.30
2023-07-11T13:20:35.757Z,5.30
2023-07-11T13:21:32.658Z,5.05
2023-07-11T13:22:29.762Z,4.88
2023-07-11T13:23:32.034Z,5.22
2023-07-11T13:25:33.938Z,5.15
2023-07-11T13:26:31.108Z,5.03
2023-07-11T13:27:32.864Z,4.90
2023-07-11T13:28:37.414Z,5.28
2023-07-11T13:29:38.965Z,5.30
2023-07-11T13:30:37.640Z,4.97
2023-07-11T13:31:36.015Z,5.20
2023-07-11T13:32:39.885Z,5.00
2023-07-11T13:34:39.097Z,5.05
2023-07-11T13:35:36.521Z,5.18
2023-07-11T13:36:36.310Z,4.88
2023-07-11T13:37:41.487Z,4.82
2023-07-11T13:38:45.623Z,5.07
2023-07-11T13:39:48.796Z,4.85
2023-07-11T13:40:47.376Z,5.28
2023-07-11T13:41:49.223Z,5.07
2023-07-11T13:42:45.906Z,5.05
2023-07-11T13:43:46.691Z,5.25